sensor_id;sensor_type;location;lat;lon;timestamp;temperature;humidity
8043;DHT22;4064;48.132;11.366;2024-03-23T00:53:28;9.30;99.90
8043;DHT22;4064;48.132;11.366;2024-03-23T00:55:53;9.40;99.90
8043;DHT22;4064;48.132;11.366;2024-03-23T00:58:19;9.40;99.90
8043;DHT22;4064;48.132;11.366;2024-03-23T01:00:45;9.40;99.90
8043;DHT22;4064;48.132;11.366;2024-03-23T01:03:11;9.50;99.90
8043;DHT22;4064;48.132;11.366;2024-03-23T01:05:36;9.50;99.90
8043;DHT22;4064;48.132;11.366;2024-03-23T01:08:02;9.60;99.90
8043;DHT22;4064;48.132;11.366;2024-03-23T01:10:28;9.70;99.90
8043;DHT22;4064;48.132;11.366;2024-03-23T01:12:53;9.70;99.90
8043;DHT22;4064;48.132;11.366;2024-03-23T01:15:19;9.70;99.90
8043;DHT22;4064;48.132;11.366;2024-03-23T01:17:45;9.80;99.90
8043;DHT22;4064;48.132;11.366;2024-03-23T01:20:10;9.80;99.90
8043;DHT22;4064;48.132;11.366;2024-03-23T01:22:36;9.80;99.90
8043;DHT22;4064;48.132;11.366;2024-03-23T01:25:02;9.80;99.90
8043;DHT22;4064;48.132;11.366;2024-03-23T01:27:28;9.80;99.90
8043;DHT22;4064;48.132;11.366;2024-03-23T01:29:53;9.80;99.90
8043;DHT22;4064;48.132;11.366;2024-03-23T01:32:19;9.80;99.90
8043;DHT22;4064;48.132;11.366;2024-03-23T01:34:45;9.80;99.90
8043;DHT22;4064;48.132;11.366;2024-03-23T01:37:11;9.80;99.90
8043;DHT22;4064;48.132;11.366;2024-03-23T01:39:37;9.90;99.90
8043;DHT22;4064;48.132;11.366;2024-03-23T01:42:03;9.90;99.90
8043;DHT22;4064;48.132;11.366;2024-03-23T01:44:29;9.90;99.90
8043;DHT22;4064;48.132;11.366;2024-03-23T01:46:54;9.90;99.90
8043;DHT22;4064;48.132;11.366;2024-03-23T01:49:20;9.90;99.90
8043;DHT22;4064;48.132;11.366;2024-03-23T01:51:46;9.90;99.90
8043;DHT22;4064;48.132;11.366;2024-03-23T01:54:12;9.90;99.90
8043;DHT22;4064;48.132;11.366;2024-03-23T01:56:38;9.80;99.90
8043;DHT22;4064;48.132;11.366;2024-03-23T01:59:05;9.80;99.90
8043;DHT22;4064;48.132;11.366;2024-03-23T02:01:31;9.80;99.90
8043;DHT22;4064;48.132;11.366;2024-03-23T02:03:57;9.80;99.90
8043;DHT22;4064;48.132;11.366;2024-03-23T02:06:24;9.80;99.90
8043;DHT22;4064;48.132;11.366;2024-03-23T02:08:50;9.80;99.90
8043;DHT22;4064;48.132;11.366;2024-03-23T02:11:16;9.80;99.90
8043;DHT22;4064;48.132;11.366;2024-03-23T02:13:41;9.90;99.90
8043;DHT22;4064;48.132;11.366;2024-03-23T02:16:07;9.90;99.90
8043;DHT22;4064;48.132;11.366;2024-03-23T02:18:33;9.90;99.90
8043;DHT22;4064;48.132;11.366;2024-03-23T02:20:59;9.90;99.90
8043;DHT22;4064;48.132;11.366;2024-03-23T02:23:25;10.00;99.90
8043;DHT22;4064;48.132;11.366;2024-03-23T02:25:51;10.00;99.90
8043;DHT22;4064;48.132;11.366;2024-03-23T02:28:16;10.00;99.90
8043;DHT22;4064;48.132;11.366;2024-03-23T02:30:43;9.90;99.90
8043;DHT22;4064;48.132;11.366;2024-03-23T02:33:09;10.00;99.90
8043;DHT22;4064;48.132;11.366;2024-03-23T02:35:34;10.00;99.90
8043;DHT22;4064;48.132;11.366;2024-03-23T02:38:00;9.90;99.90
8043;DHT22;4064;48.132;11.366;2024-03-23T02:40:27;9.90;99.90
8043;DHT22;4064;48.132;11.366;2024-03-23T02:42:53;9.80;99.90
8043;DHT22;4064;48.132;11.366;2024-03-23T02:45:18;9.80;99.90
8043;DHT22;4064;48.132;11.366;2024-03-23T02:47:44;9.90;99.90
8043;DHT22;4064;48.132;11.366;2024-03-23T02:50:10;9.90;99.90
8043;DHT22;4064;48.132;11.366;2024-03-23T02:52:36;10.00;99.90
8043;DHT22;4064;48.132;11.366;2024-03-23T02:55:03;10.00;99.90
8043;DHT22;4064;48.132;11.366;2024-03-23T02:57:29;10.00;99.90
8043;DHT22;4064;48.132;11.366;2024-03-23T02:59:55;10.00;99.90
8043;DHT22;4064;48.132;11.366;2024-03-23T03:02:23;10.00;99.90
8043;DHT22;4064;48.132;11.366;2024-03-23T03:04:49;10.00;99.90
8043;DHT22;4064;48.132;11.366;2024-03-23T03:07:14;10.00;99.90
8043;DHT22;4064;48.132;11.366;2024-03-23T03:09:40;9.90;99.90
8043;DHT22;4064;48.132;11.366;2024-03-23T03:12:06;10.00;99.90
8043;DHT22;4064;48.132;11.366;2024-03-23T03:14:32;9.90;99.90
8043;DHT22;4064;48.132;11.366;2024-03-23T03:16:58;9.90;99.90
8043;DHT22;4064;48.132;11.366;2024-03-23T03:19:24;9.80;99.90
8043;DHT22;4064;48.132;11.366;2024-03-23T03:21:50;9.90;99.90
8043;DHT22;4064;48.132;11.366;2024-03-23T03:24:15;9.90;99.90
8043;DHT22;4064;48.132;11.366;2024-03-23T03:26:41;9.90;99.90
8043;DHT22;4064;48.132;11.366;2024-03-23T03:29:08;9.80;99.90
8043;DHT22;4064;48.132;11.366;2024-03-23T03:31:33;9.80;99.90
8043;DHT22;4064;48.132;11.366;2024-03-23T03:33:59;9.80;99.90
8043;DHT22;4064;48.132;11.366;2024-03-23T03:36:25;9.80;99.90
8043;DHT22;4064;48.132;11.366;2024-03-23T03:38:50;9.80;99.90
8043;DHT22;4064;48.132;11.366;2024-03-23T03:41:16;9.80;99.90
8043;DHT22;4064;48.132;11.366;2024-03-23T03:43:42;9.80;99.90
8043;DHT22;4064;48.132;11.366;2024-03-23T03:46:08;9.80;99.90
8043;DHT22;4064;48.132;11.366;2024-03-23T03:48:34;9.70;99.90
8043;DHT22;4064;48.132;11.366;2024-03-23T03:51:00;9.60;99.90
8043;DHT22;4064;48.132;11.366;2024-03-23T03:53:25;9.60;99.90
8043;DHT22;4064;48.132;11.366;2024-03-23T03:55:51;9.60;99.90
8043;DHT22;4064;48.132;11.366;2024-03-23T03:58:17;9.60;99.90
8043;DHT22;4064;48.132;11.366;2024-03-23T04:00:43;9.60;99.90
8043;DHT22;4064;48.132;11.366;2024-03-23T04:03:08;9.60;99.90
8043;DHT22;4064;48.132;11.366;2024-03-23T04:05:34;9.60;99.90
8043;DHT22;4064;48.132;11.366;2024-03-23T04:08:00;9.70;99.90
8043;DHT22;4064;48.132;11.366;2024-03-23T04:10:25;9.70;99.90
8043;DHT22;4064;48.132;11.366;2024-03-23T04:12:52;9.70;99.90
8043;DHT22;4064;48.132;11.366;2024-03-23T04:15:19;9.70;99.90
8043;DHT22;4064;48.132;11.366;2024-03-23T04:17:45;9.70;99.90
8043;DHT22;4064;48.132;11.366;2024-03-23T04:20:11;9.70;99.90
8043;DHT22;4064;48.132;11.366;2024-03-23T04:22:39;9.60;99.90
8043;DHT22;4064;48.132;11.366;2024-03-23T04:25:05;9.70;99.90
8043;DHT22;4064;48.132;11.366;2024-03-23T04:27:39;9.70;99.90
8043;DHT22;4064;48.132;11.366;2024-03-23T04:30:06;9.70;99.90
8043;DHT22;4064;48.132;11.366;2024-03-23T04:32:37;9.70;99.90
8043;DHT22;4064;48.132;11.366;2024-03-23T04:35:03;9.80;99.90
8043;DHT22;4064;48.132;11.366;2024-03-23T04:40:00;9.80;99.90
8043;DHT22;4064;48.132;11.366;2024-03-23T04:42:27;9.80;99.90
8043;DHT22;4064;48.132;11.366;2024-03-23T04:44:53;9.80;99.90
8043;DHT22;4064;48.132;11.366;2024-03-23T04:47:19;9.80;99.90
8043;DHT22;4064;48.132;11.366;2024-03-23T04:49:44;9.80;99.90
8043;DHT22;4064;48.132;11.366;2024-03-23T04:52:10;9.70;99.90
8043;DHT22;4064;48.132;11.366;2024-03-23T04:54:36;9.60;99.90
8043;DHT22;4064;48.132;11.366;2024-03-23T04:57:02;9.60;99.90
8043;DHT22;4064;48.132;11.366;2024-03-23T04:59:28;9.50;99.90
8043;DHT22;4064;48.132;11.366;2024-03-23T05:01:54;9.40;99.90
8043;DHT22;4064;48.132;11.366;2024-03-23T05:04:19;9.30;99.90
8043;DHT22;4064;48.132;11.366;2024-03-23T05:06:45;9.20;99.90
8043;DHT22;4064;48.132;11.366;2024-03-23T05:09:11;9.20;99.90
8043;DHT22;4064;48.132;11.366;2024-03-23T05:11:37;9.20;99.90
8043;DHT22;4064;48.132;11.366;2024-03-23T05:14:03;9.10;99.90
8043;DHT22;4064;48.132;11.366;2024-03-23T05:16:29;9.00;99.90
8043;DHT22;4064;48.132;11.366;2024-03-23T05:18:55;9.00;99.90
8043;DHT22;4064;48.132;11.366;2024-03-23T05:21:20;9.00;99.90
8043;DHT22;4064;48.132;11.366;2024-03-23T05:23:46;8.90;99.90
8043;DHT22;4064;48.132;11.366;2024-03-23T05:26:13;9.00;99.90
8043;DHT22;4064;48.132;11.366;2024-03-23T05:28:39;9.00;99.90
8043;DHT22;4064;48.132;11.366;2024-03-23T05:31:05;9.10;99.90
8043;DHT22;4064;48.132;11.366;2024-03-23T05:33:30;9.30;99.90
8043;DHT22;4064;48.132;11.366;2024-03-23T05:35:57;9.70;99.90
8043;DHT22;4064;48.132;11.366;2024-03-23T05:38:23;10.10;99.90
8043;DHT22;4064;48.132;11.366;2024-03-23T05:40:56;10.50;99.90
8043;DHT22;4064;48.132;11.366;2024-03-23T05:43:22;10.80;99.90
8043;DHT22;4064;48.132;11.366;2024-03-23T05:46:00;10.90;99.90
8043;DHT22;4064;48.132;11.366;2024-03-23T05:48:33;11.20;99.90
8043;DHT22;4064;48.132;11.366;2024-03-23T05:50:59;11.40;99.90
8043;DHT22;4064;48.132;11.366;2024-03-23T05:53:25;11.50;99.90
8043;DHT22;4064;48.132;11.366;2024-03-23T05:55:51;12.00;99.90
8043;DHT22;4064;48.132;11.366;2024-03-23T05:58:19;12.40;99.90
8043;DHT22;4064;48.132;11.366;2024-03-23T06:00:46;12.60;99.90
8043;DHT22;4064;48.132;11.366;2024-03-23T06:03:12;12.80;99.90
8043;DHT22;4064;48.132;11.366;2024-03-23T06:05:38;12.90;99.90
8043;DHT22;4064;48.132;11.366;2024-03-23T06:08:04;12.90;99.90
8043;DHT22;4064;48.132;11.366;2024-03-23T06:10:30;13.20;99.90
8043;DHT22;4064;48.132;11.366;2024-03-23T06:12:57;13.30;99.90
8043;DHT22;4064;48.132;11.366;2024-03-23T06:15:24;13.60;99.90
8043;DHT22;4064;48.132;11.366;2024-03-23T06:17:50;13.80;99.90
8043;DHT22;4064;48.132;11.366;2024-03-23T06:20:15;14.70;99.90
8043;DHT22;4064;48.132;11.366;2024-03-23T06:22:42;15.30;97.40
8043;DHT22;4064;48.132;11.366;2024-03-23T06:25:08;15.50;95.90
8043;DHT22;4064;48.132;11.366;2024-03-23T06:27:34;15.60;95.70
8043;DHT22;4064;48.132;11.366;2024-03-23T06:30:00;15.80;94.30
8043;DHT22;4064;48.132;11.366;2024-03-23T06:32:27;16.80;92.80
8043;DHT22;4064;48.132;11.366;2024-03-23T06:34:53;17.70;90.80
8043;DHT22;4064;48.132;11.366;2024-03-23T06:37:18;18.20;88.00
8043;DHT22;4064;48.132;11.366;2024-03-23T06:39:46;18.40;85.00
8043;DHT22;4064;48.132;11.366;2024-03-23T06:42:12;18.50;81.80
8043;DHT22;4064;48.132;11.366;2024-03-23T06:44:38;19.80;79.00
8043;DHT22;4064;48.132;11.366;2024-03-23T06:47:05;19.80;77.20
8043;DHT22;4064;48.132;11.366;2024-03-23T06:49:30;19.90;76.10
8043;DHT22;4064;48.132;11.366;2024-03-23T06:51:56;20.00;74.50
8043;DHT22;4064;48.132;11.366;2024-03-23T06:54:22;19.70;74.30
8043;DHT22;4064;48.132;11.366;2024-03-23T06:56:47;20.00;74.50
8043;DHT22;4064;48.132;11.366;2024-03-23T06:59:40;20.10;75.00
8043;DHT22;4064;48.132;11.366;2024-03-23T07:02:06;18.70;74.40
8043;DHT22;4064;48.132;11.366;2024-03-23T07:04:34;17.50;80.50
8043;DHT22;4064;48.132;11.366;2024-03-23T07:07:00;17.00;83.30
8043;DHT22;4064;48.132;11.366;2024-03-23T07:09:27;16.30;87.20
8043;DHT22;4064;48.132;11.366;2024-03-23T07:11:57;15.80;89.50
8043;DHT22;4064;48.132;11.366;2024-03-23T07:14:23;15.40;91.30
8043;DHT22;4064;48.132;11.366;2024-03-23T07:16:51;15.00;91.60
8043;DHT22;4064;48.132;11.366;2024-03-23T07:22:31;14.70;93.40
8043;DHT22;4064;48.132;11.366;2024-03-23T07:25:00;14.50;94.30
8043;DHT22;4064;48.132;11.366;2024-03-23T07:27:31;14.50;94.30
8043;DHT22;4064;48.132;11.366;2024-03-23T07:29:59;14.40;94.10
8043;DHT22;4064;48.132;11.366;2024-03-23T07:32:26;14.20;96.10
8043;DHT22;4064;48.132;11.366;2024-03-23T07:34:52;13.70;99.90
8043;DHT22;4064;48.132;11.366;2024-03-23T07:37:18;12.90;99.90
8043;DHT22;4064;48.132;11.366;2024-03-23T07:39:44;12.40;99.90
8043;DHT22;4064;48.132;11.366;2024-03-23T07:42:09;11.90;99.90
8043;DHT22;4064;48.132;11.366;2024-03-23T07:44:35;11.70;99.90
8043;DHT22;4064;48.132;11.366;2024-03-23T07:47:01;11.40;99.90
8043;DHT22;4064;48.132;11.366;2024-03-23T07:49:27;11.20;99.90
8043;DHT22;4064;48.132;11.366;2024-03-23T07:51:53;10.90;99.90
8043;DHT22;4064;48.132;11.366;2024-03-23T07:54:19;10.80;99.90
8043;DHT22;4064;48.132;11.366;2024-03-23T07:56:44;10.60;99.90
8043;DHT22;4064;48.132;11.366;2024-03-23T07:59:10;10.50;99.90
8043;DHT22;4064;48.132;11.366;2024-03-23T08:01:36;10.30;99.90
8043;DHT22;4064;48.132;11.366;2024-03-23T08:04:02;10.30;99.90
8043;DHT22;4064;48.132;11.366;2024-03-23T08:06:28;10.10;99.90
8043;DHT22;4064;48.132;11.366;2024-03-23T08:08:56;10.10;99.90
8043;DHT22;4064;48.132;11.366;2024-03-23T08:11:27;10.00;99.90
8043;DHT22;4064;48.132;11.366;2024-03-23T08:13:53;9.80;99.90
8043;DHT22;4064;48.132;11.366;2024-03-23T08:16:19;9.80;99.90
8043;DHT22;4064;48.132;11.366;2024-03-23T08:18:44;9.70;99.90
8043;DHT22;4064;48.132;11.366;2024-03-23T08:21:10;9.60;99.90
8043;DHT22;4064;48.132;11.366;2024-03-23T08:23:36;9.50;99.90
8043;DHT22;4064;48.132;11.366;2024-03-23T08:26:08;9.50;99.90
8043;DHT22;4064;48.132;11.366;2024-03-23T08:28:35;9.40;99.90
8043;DHT22;4064;48.132;11.366;2024-03-23T08:31:03;9.20;99.90
8043;DHT22;4064;48.132;11.366;2024-03-23T08:33:29;9.00;99.90
8043;DHT22;4064;48.132;11.366;2024-03-23T08:36:03;8.80;99.90
8043;DHT22;4064;48.132;11.366;2024-03-23T08:38:29;8.80;99.90
8043;DHT22;4064;48.132;11.366;2024-03-23T08:41:02;8.70;99.90
8043;DHT22;4064;48.132;11.366;2024-03-23T08:43:30;8.60;99.90
8043;DHT22;4064;48.132;11.366;2024-03-23T08:46:11;8.60;99.90
8043;DHT22;4064;48.132;11.366;2024-03-23T08:48:42;8.50;99.90
8043;DHT22;4064;48.132;11.366;2024-03-23T08:51:10;8.50;99.90
8043;DHT22;4064;48.132;11.366;2024-03-23T08:53:36;8.50;99.90
8043;DHT22;4064;48.132;11.366;2024-03-23T08:56:03;8.50;99.90
8043;DHT22;4064;48.132;11.366;2024-03-23T08:58:30;8.50;99.90
8043;DHT22;4064;48.132;11.366;2024-03-23T09:01:02;8.50;99.90
8043;DHT22;4064;48.132;11.366;2024-03-23T09:03:28;8.30;99.90
8043;DHT22;4064;48.132;11.366;2024-03-23T09:05:54;8.40;99.90
8043;DHT22;4064;48.132;11.366;2024-03-23T09:08:21;8.40;99.90
8043;DHT22;4064;48.132;11.366;2024-03-23T09:10:47;8.30;99.90
8043;DHT22;4064;48.132;11.366;2024-03-23T09:13:13;8.40;99.90
8043;DHT22;4064;48.132;11.366;2024-03-23T09:15:49;8.40;99.90
8043;DHT22;4064;48.132;11.366;2024-03-23T09:18:15;8.40;99.90
8043;DHT22;4064;48.132;11.366;2024-03-23T09:20:41;8.40;99.90
8043;DHT22;4064;48.132;11.366;2024-03-23T09:23:07;8.30;99.90
8043;DHT22;4064;48.132;11.366;2024-03-23T09:25:39;8.30;99.90
8043;DHT22;4064;48.132;11.366;2024-03-23T09:28:05;8.30;99.90
8043;DHT22;4064;48.132;11.366;2024-03-23T09:30:32;8.20;99.90
8043;DHT22;4064;48.132;11.366;2024-03-23T09:32:59;8.20;99.90
8043;DHT22;4064;48.132;11.366;2024-03-23T09:35:24;8.20;99.90
8043;DHT22;4064;48.132;11.366;2024-03-23T09:37:50;8.10;99.90
8043;DHT22;4064;48.132;11.366;2024-03-23T09:40:16;8.00;99.90
8043;DHT22;4064;48.132;11.366;2024-03-23T09:42:42;7.80;99.90
8043;DHT22;4064;48.132;11.366;2024-03-23T09:45:20;7.70;99.90
8043;DHT22;4064;48.132;11.366;2024-03-23T09:47:47;7.50;99.90
8043;DHT22;4064;48.132;11.366;2024-03-23T09:50:13;7.40;99.90
8043;DHT22;4064;48.132;11.366;2024-03-23T09:52:39;7.50;99.90
8043;DHT22;4064;48.132;11.366;2024-03-23T09:55:08;7.40;99.90
8043;DHT22;4064;48.132;11.366;2024-03-23T09:57:34;7.40;99.90
8043;DHT22;4064;48.132;11.366;2024-03-23T10:00:00;7.30;99.90
8043;DHT22;4064;48.132;11.366;2024-03-23T10:02:26;7.20;99.90
8043;DHT22;4064;48.132;11.366;2024-03-23T10:04:51;7.20;99.90
8043;DHT22;4064;48.132;11.366;2024-03-23T10:07:21;7.20;99.90
8043;DHT22;4064;48.132;11.366;2024-03-23T10:09:49;7.20;99.90
8043;DHT22;4064;48.132;11.366;2024-03-23T10:12:19;7.10;99.90
8043;DHT22;4064;48.132;11.366;2024-03-23T10:14:45;7.20;99.90
8043;DHT22;4064;48.132;11.366;2024-03-23T10:17:19;7.20;99.90
8043;DHT22;4064;48.132;11.366;2024-03-23T10:19:49;7.20;99.90
8043;DHT22;4064;48.132;11.366;2024-03-23T10:22:23;7.20;99.90
8043;DHT22;4064;48.132;11.366;2024-03-23T10:24:52;7.30;99.90
8043;DHT22;4064;48.132;11.366;2024-03-23T10:27:21;7.20;99.90
8043;DHT22;4064;48.132;11.366;2024-03-23T10:29:47;7.20;99.90
8043;DHT22;4064;48.132;11.366;2024-03-23T10:32:15;7.20;99.90
8043;DHT22;4064;48.132;11.366;2024-03-23T10:34:41;7.20;99.90
8043;DHT22;4064;48.132;11.366;2024-03-23T10:37:08;7.10;99.90
8043;DHT22;4064;48.132;11.366;2024-03-23T10:39:37;7.10;99.90
8043;DHT22;4064;48.132;11.366;2024-03-23T10:42:09;6.90;99.90
8043;DHT22;4064;48.132;11.366;2024-03-23T10:44:37;6.70;99.90
8043;DHT22;4064;48.132;11.366;2024-03-23T10:47:05;6.60;99.90
8043;DHT22;4064;48.132;11.366;2024-03-23T10:49:32;6.60;99.90
8043;DHT22;4064;48.132;11.366;2024-03-23T10:51:59;6.70;99.90
8043;DHT22;4064;48.132;11.366;2024-03-23T10:54:26;6.80;99.90
8043;DHT22;4064;48.132;11.366;2024-03-23T10:59:28;7.00;99.90
8043;DHT22;4064;48.132;11.366;2024-03-23T11:01:58;7.10;99.90
8043;DHT22;4064;48.132;11.366;2024-03-23T11:04:34;7.10;99.90
8043;DHT22;4064;48.132;11.366;2024-03-23T11:09:52;7.10;99.90
8043;DHT22;4064;48.132;11.366;2024-03-23T11:14:53;7.30;99.90
8043;DHT22;4064;48.132;11.366;2024-03-23T11:17:21;7.40;99.90
8043;DHT22;4064;48.132;11.366;2024-03-23T11:20:13;7.50;99.90
8043;DHT22;4064;48.132;11.366;2024-03-23T11:22:46;7.50;99.90
8043;DHT22;4064;48.132;11.366;2024-03-23T11:27:45;7.50;99.90
8043;DHT22;4064;48.132;11.366;2024-03-23T11:32:47;7.70;99.90
8043;DHT22;4064;48.132;11.366;2024-03-23T11:38:07;7.90;99.90
8043;DHT22;4064;48.132;11.366;2024-03-23T11:40:35;7.90;99.90
8043;DHT22;4064;48.132;11.366;2024-03-23T11:43:05;8.00;99.90
8043;DHT22;4064;48.132;11.366;2024-03-23T11:45:39;8.10;99.90
8043;DHT22;4064;48.132;11.366;2024-03-23T11:48:12;8.20;99.90
8043;DHT22;4064;48.132;11.366;2024-03-23T11:50:40;8.40;99.90
8043;DHT22;4064;48.132;11.366;2024-03-23T11:53:08;8.30;99.90
8043;DHT22;4064;48.132;11.366;2024-03-23T11:55:51;8.30;99.90
8043;DHT22;4064;48.132;11.366;2024-03-23T11:58:21;8.20;99.90
8043;DHT22;4064;48.132;11.366;2024-03-23T12:01:00;8.20;99.90
8043;DHT22;4064;48.132;11.366;2024-03-23T12:03:31;8.00;99.90
8043;DHT22;4064;48.132;11.366;2024-03-23T12:05:59;7.80;99.90
8043;DHT22;4064;48.132;11.366;2024-03-23T12:08:33;7.60;99.90
8043;DHT22;4064;48.132;11.366;2024-03-23T12:11:11;7.70;99.90
8043;DHT22;4064;48.132;11.366;2024-03-23T12:13:38;7.60;99.90
8043;DHT22;4064;48.132;11.366;2024-03-23T12:16:17;7.70;99.90
8043;DHT22;4064;48.132;11.366;2024-03-23T12:18:44;7.90;99.90
8043;DHT22;4064;48.132;11.366;2024-03-23T12:21:10;7.90;99.90
8043;DHT22;4064;48.132;11.366;2024-03-23T12:23:39;8.00;99.90
8043;DHT22;4064;48.132;11.366;2024-03-23T12:26:05;8.10;99.90
8043;DHT22;4064;48.132;11.366;2024-03-23T12:28:31;8.00;99.90
8043;DHT22;4064;48.132;11.366;2024-03-23T12:30:57;7.90;99.90
8043;DHT22;4064;48.132;11.366;2024-03-23T12:33:22;7.80;99.90
8043;DHT22;4064;48.132;11.366;2024-03-23T12:35:49;7.90;99.90
8043;DHT22;4064;48.132;11.366;2024-03-23T12:38:15;8.00;99.90
8043;DHT22;4064;48.132;11.366;2024-03-23T12:40:41;8.10;99.90
8043;DHT22;4064;48.132;11.366;2024-03-23T12:43:07;8.10;99.90
8043;DHT22;4064;48.132;11.366;2024-03-23T12:45:33;8.10;99.90
8043;DHT22;4064;48.132;11.366;2024-03-23T12:47:59;8.10;99.90
8043;DHT22;4064;48.132;11.366;2024-03-23T12:50:24;8.20;99.90
8043;DHT22;4064;48.132;11.366;2024-03-23T12:52:50;8.30;99.90
8043;DHT22;4064;48.132;11.366;2024-03-23T12:55:16;8.30;99.90
8043;DHT22;4064;48.132;11.366;2024-03-23T12:57:43;8.40;99.90
8043;DHT22;4064;48.132;11.366;2024-03-23T13:00:09;8.40;99.90
8043;DHT22;4064;48.132;11.366;2024-03-23T13:02:38;8.30;99.90
8043;DHT22;4064;48.132;11.366;2024-03-23T13:05:05;8.30;99.90
8043;DHT22;4064;48.132;11.366;2024-03-23T13:07:31;8.20;99.90
8043;DHT22;4064;48.132;11.366;2024-03-23T13:09:56;8.10;99.90
8043;DHT22;4064;48.132;11.366;2024-03-23T13:12:23;8.10;99.90
8043;DHT22;4064;48.132;11.366;2024-03-23T13:14:49;8.20;99.90
8043;DHT22;4064;48.132;11.366;2024-03-23T13:17:14;8.20;99.90
8043;DHT22;4064;48.132;11.366;2024-03-23T13:19:40;8.20;99.90
8043;DHT22;4064;48.132;11.366;2024-03-23T13:22:07;8.20;99.90
8043;DHT22;4064;48.132;11.366;2024-03-23T13:24:32;8.20;99.90
8043;DHT22;4064;48.132;11.366;2024-03-23T13:26:58;8.20;99.90
8043;DHT22;4064;48.132;11.366;2024-03-23T13:29:24;8.20;99.90
8043;DHT22;4064;48.132;11.366;2024-03-23T13:31:51;8.30;99.90
8043;DHT22;4064;48.132;11.366;2024-03-23T13:34:18;8.30;99.90
8043;DHT22;4064;48.132;11.366;2024-03-23T13:36:47;8.30;99.90
8043;DHT22;4064;48.132;11.366;2024-03-23T13:39:14;8.30;99.90
8043;DHT22;4064;48.132;11.366;2024-03-23T13:41:44;8.40;99.90
8043;DHT22;4064;48.132;11.366;2024-03-23T13:44:11;8.40;99.90
8043;DHT22;4064;48.132;11.366;2024-03-23T13:46:37;8.30;99.90
8043;DHT22;4064;48.132;11.366;2024-03-23T13:49:04;8.20;99.90
8043;DHT22;4064;48.132;11.366;2024-03-23T13:51:29;8.00;99.90
8043;DHT22;4064;48.132;11.366;2024-03-23T13:53:56;7.80;99.90
8043;DHT22;4064;48.132;11.366;2024-03-23T13:56:27;7.00;99.90
8043;DHT22;4064;48.132;11.366;2024-03-23T13:58:57;6.60;99.90
8043;DHT22;4064;48.132;11.366;2024-03-23T14:01:23;6.40;99.90
8043;DHT22;4064;48.132;11.366;2024-03-23T14:03:49;6.30;99.90
8043;DHT22;4064;48.132;11.366;2024-03-23T14:06:15;6.20;99.90
8043;DHT22;4064;48.132;11.366;2024-03-23T14:08:41;6.20;99.90
8043;DHT22;4064;48.132;11.366;2024-03-23T14:11:10;6.20;99.90
8043;DHT22;4064;48.132;11.366;2024-03-23T14:13:36;6.30;99.90
8043;DHT22;4064;48.132;11.366;2024-03-23T14:16:02;6.40;99.90
8043;DHT22;4064;48.132;11.366;2024-03-23T14:18:29;6.40;99.90
8043;DHT22;4064;48.132;11.366;2024-03-23T14:21:01;6.50;99.90
8043;DHT22;4064;48.132;11.366;2024-03-23T14:23:27;6.50;99.90
8043;DHT22;4064;48.132;11.366;2024-03-23T14:25:58;6.50;99.90
8043;DHT22;4064;48.132;11.366;2024-03-23T14:28:24;6.50;99.90
8043;DHT22;4064;48.132;11.366;2024-03-23T14:30:50;6.50;99.90
8043;DHT22;4064;48.132;11.366;2024-03-23T14:33:17;6.50;99.90
8043;DHT22;4064;48.132;11.366;2024-03-23T14:35:43;6.40;99.90
8043;DHT22;4064;48.132;11.366;2024-03-23T14:38:09;6.40;99.90
8043;DHT22;4064;48.132;11.366;2024-03-23T14:40:35;6.40;99.90
8043;DHT22;4064;48.132;11.366;2024-03-23T14:43:01;6.40;99.90
8043;DHT22;4064;48.132;11.366;2024-03-23T14:45:28;6.40;99.90
8043;DHT22;4064;48.132;11.366;2024-03-23T14:47:53;6.30;99.90
8043;DHT22;4064;48.132;11.366;2024-03-23T14:50:19;6.30;99.90
8043;DHT22;4064;48.132;11.366;2024-03-23T14:52:47;6.20;99.90
8043;DHT22;4064;48.132;11.366;2024-03-23T14:55:13;6.00;99.90
8043;DHT22;4064;48.132;11.366;2024-03-23T14:57:39;6.00;99.90
8043;DHT22;4064;48.132;11.366;2024-03-23T15:00:08;5.80;99.90
8043;DHT22;4064;48.132;11.366;2024-03-23T15:02:36;5.50;99.90
8043;DHT22;4064;48.132;11.366;2024-03-23T15:05:02;5.40;99.90
8043;DHT22;4064;48.132;11.366;2024-03-23T15:07:30;5.40;99.90
8043;DHT22;4064;48.132;11.366;2024-03-23T15:09:56;5.20;99.90
8043;DHT22;4064;48.132;11.366;2024-03-23T15:12:21;5.30;99.90
8043;DHT22;4064;48.132;11.366;2024-03-23T15:14:48;5.00;99.90
8043;DHT22;4064;48.132;11.366;2024-03-23T15:17:13;4.90;99.90
8043;DHT22;4064;48.132;11.366;2024-03-23T15:19:39;5.00;99.90
8043;DHT22;4064;48.132;11.366;2024-03-23T15:22:05;5.10;99.90
8043;DHT22;4064;48.132;11.366;2024-03-23T15:24:31;5.20;99.90
8043;DHT22;4064;48.132;11.366;2024-03-23T15:26:57;5.30;99.90
8043;DHT22;4064;48.132;11.366;2024-03-23T15:29:23;5.40;99.90
8043;DHT22;4064;48.132;11.366;2024-03-23T15:31:48;5.30;99.90
8043;DHT22;4064;48.132;11.366;2024-03-23T15:34:20;5.30;99.90
8043;DHT22;4064;48.132;11.366;2024-03-23T15:36:49;5.50;99.90
8043;DHT22;4064;48.132;11.366;2024-03-23T15:39:18;5.60;99.90
8043;DHT22;4064;48.132;11.366;2024-03-23T15:41:47;5.70;99.90
8043;DHT22;4064;48.132;11.366;2024-03-23T15:44:13;5.70;99.90
8043;DHT22;4064;48.132;11.366;2024-03-23T15:46:39;5.70;99.90
8043;DHT22;4064;48.132;11.366;2024-03-23T15:49:05;5.80;99.90
8043;DHT22;4064;48.132;11.366;2024-03-23T15:51:31;5.80;99.90
8043;DHT22;4064;48.132;11.366;2024-03-23T15:54:02;5.80;99.90
8043;DHT22;4064;48.132;11.366;2024-03-23T15:56:31;6.00;99.90
8043;DHT22;4064;48.132;11.366;2024-03-23T15:58:57;6.10;99.90
8043;DHT22;4064;48.132;11.366;2024-03-23T16:01:30;6.00;99.90
8043;DHT22;4064;48.132;11.366;2024-03-23T16:03:57;5.90;99.90
8043;DHT22;4064;48.132;11.366;2024-03-23T16:06:23;5.70;99.90
8043;DHT22;4064;48.132;11.366;2024-03-23T16:08:49;5.70;99.90
8043;DHT22;4064;48.132;11.366;2024-03-23T16:11:15;5.70;99.90
8043;DHT22;4064;48.132;11.366;2024-03-23T16:13:40;5.80;99.90
8043;DHT22;4064;48.132;11.366;2024-03-23T16:16:08;5.70;99.90
8043;DHT22;4064;48.132;11.366;2024-03-23T16:18:36;5.70;99.90
8043;DHT22;4064;48.132;11.366;2024-03-23T16:21:03;5.70;99.90
8043;DHT22;4064;48.132;11.366;2024-03-23T16:23:33;5.70;99.90
8043;DHT22;4064;48.132;11.366;2024-03-23T16:26:00;5.70;99.90
8043;DHT22;4064;48.132;11.366;2024-03-23T16:28:31;5.70;99.90
8043;DHT22;4064;48.132;11.366;2024-03-23T16:31:01;5.80;99.90
8043;DHT22;4064;48.132;11.366;2024-03-23T16:33:28;5.80;99.90
8043;DHT22;4064;48.132;11.366;2024-03-23T16:35:58;5.80;99.90
8043;DHT22;4064;48.132;11.366;2024-03-23T16:38:24;5.90;99.90
8043;DHT22;4064;48.132;11.366;2024-03-23T16:40:57;5.80;99.90
8043;DHT22;4064;48.132;11.366;2024-03-23T16:43:23;5.80;99.90
8043;DHT22;4064;48.132;11.366;2024-03-23T16:46:03;5.80;99.90
8043;DHT22;4064;48.132;11.366;2024-03-23T16:48:30;5.80;99.90
8043;DHT22;4064;48.132;11.366;2024-03-23T16:51:00;5.70;99.90
8043;DHT22;4064;48.132;11.366;2024-03-23T16:53:26;5.70;99.90
8043;DHT22;4064;48.132;11.366;2024-03-23T16:55:59;5.70;99.90
8043;DHT22;4064;48.132;11.366;2024-03-23T16:58:32;5.70;99.90
8043;DHT22;4064;48.132;11.366;2024-03-23T17:01:05;5.50;99.90
8043;DHT22;4064;48.132;11.366;2024-03-23T17:03:34;5.30;99.90
8043;DHT22;4064;48.132;11.366;2024-03-23T17:06:04;5.20;99.90
8043;DHT22;4064;48.132;11.366;2024-03-23T17:08:31;5.10;99.90
8043;DHT22;4064;48.132;11.366;2024-03-23T17:11:01;5.00;99.90
8043;DHT22;4064;48.132;11.366;2024-03-23T17:13:27;4.80;99.90